Arlington, New Jersey
Current Conditions -  °F | °C
As of 10:51 PM on Friday 24 Oct 2014 (Local Time) from KEWR Reporting Station
Broken Clouds Broken Clouds  
Wind Chill: 15°   Ceiling: 25000
Heat Index: 15°   Visibility: 10mi
Dew Point:   Wind: 12mph
Humidity: 49%   Direction: 320°NW
Pressure: 29.84"   Gusts: NA
Location:  40.7563°N, 74.1217°W
Report Text: KEWR 250251Z 32010KT 10SM FEW130 BKN250 15/04 A2984 RMK AO2 SLP105 T01500044 51013
Loading
Personal Weather Stations






























Interactive Weather Map
Tropical Storm Tracking
New forecast layout! Learn more

10-Day Weather Forecast

Advertisements
Track Severe Weather on mobile